Time,TemperatureF,DewpointF,PressureIn,WindDirection,WindDirectionDegrees,WindSpeedMPH,WindSpeedGustMPH,Humidity,HourlyPrecipIn,Conditions,Clouds,dailyrainin,SoftwareType,DateUTC
2013-02-11 00:08:00,40.4,33.0,29.62,SW,229,13.0,26.0,75,0.00,,,0.00,weatherlink.com 1.10,2013-02-11 06:08:00,
2013-02-11 00:23:00,40.1,32.0,29.62,WSW,242,14.0,28.0,74,0.00,,,0.00,weatherlink.com 1.10,2013-02-11 06:23:00,
2013-02-11 00:38:00,39.7,32.0,29.63,West,266,18.0,30.0,74,0.00,,,0.00,weatherlink.com 1.10,2013-02-11 06:38:00,
2013-02-11 00:53:00,39.1,31.0,29.63,SSW,213,8.0,25.0,74,0.00,,,0.00,weatherlink.com 1.10,2013-02-11 06:53:00,
2013-02-11 01:08:00,38.8,31.0,29.64,West,267,18.0,32.0,74,0.00,,,0.00,weatherlink.com 1.10,2013-02-11 07:08:00,
2013-02-11 01:23:00,38.2,30.0,29.64,SW,231,8.0,32.0,73,0.00,,,0.00,weatherlink.com 1.10,2013-02-11 07:23:00,
2013-02-11 01:38:00,37.6,29.0,29.65,WSW,252,10.0,33.0,70,0.00,,,0.00,weatherlink.com 1.10,2013-02-11 07:38:00,
2013-02-11 01:53:00,37.0,28.0,29.67,WNW,283,19.0,27.0,71,0.00,,,0.00,weatherlink.com 1.10,2013-02-11 07:53:00,
2013-02-11 02:08:00,36.8,27.0,29.68,NNW,345,13.0,28.0,69,0.00,,,0.00,weatherlink.com 1.10,2013-02-11 08:08:00,
2013-02-11 02:23:00,36.4,27.0,29.68,WSW,254,20.0,29.0,70,0.00,,,0.00,weatherlink.com 1.10,2013-02-11 08:23:00,
2013-02-11 02:38:00,35.9,27.0,29.69,NW,324,22.0,33.0,70,0.00,,,0.00,weatherlink.com 1.10,2013-02-11 08:38:00,
2013-02-11 02:53:00,35.8,27.0,29.69,West,277,10.0,24.0,71,0.00,,,0.00,weatherlink.com 1.10,2013-02-11 08:53:00,
2013-02-11 03:08:00,35.7,26.0,29.70,West,263,11.0,40.0,69,0.00,,,0.00,weatherlink.com 1.10,2013-02-11 09:08:00,
2013-02-11 03:23:00,35.7,26.0,29.70,NW,307,24.0,33.0,69,0.00,,,0.00,weatherlink.com 1.10,2013-02-11 09:23:00,
2013-02-11 03:38:00,35.5,26.0,29.71,West,273,24.0,30.0,69,0.00,,,0.00,weatherlink.com 1.10,2013-02-11 09:38:00,
2013-02-11 03:53:00,35.5,26.0,29.71,WSW,257,15.0,35.0,68,0.00,,,0.00,weatherlink.com 1.10,2013-02-11 09:53:00,
2013-02-11 04:08:00,35.3,25.0,29.72,NW,312,17.0,38.0,67,0.00,,,0.00,weatherlink.com 1.10,2013-02-11 10:08:00,
2013-02-11 04:24:00,35.1,25.0,29.72,West,279,13.0,31.0,68,0.00,,,0.00,weatherlink.com 1.10,2013-02-11 10:24:00,
2013-02-11 04:39:00,35.0,26.0,29.73,WNW,294,15.0,27.0,70,0.00,,,0.00,weatherlink.com 1.10,2013-02-11 10:39:00,
2013-02-11 04:54:00,34.9,25.0,29.74,West,263,30.0,36.0,68,0.00,,,0.00,weatherlink.com 1.10,2013-02-11 10:54:00,
2013-02-11 05:09:00,34.8,25.0,29.74,West,276,12.0,31.0,67,0.00,,,0.00,weatherlink.com 1.10,2013-02-11 11:09:00,
2013-02-11 05:24:00,34.6,25.0,29.74,West,271,17.0,25.0,69,0.00,,,0.00,weatherlink.com 1.10,2013-02-11 11:24:00,
2013-02-11 05:39:00,34.6,25.0,29.75,WSW,257,15.0,31.0,68,0.00,,,0.00,weatherlink.com 1.10,2013-02-11 11:39:00,
2013-02-11 05:54:00,34.5,25.0,29.76,WSW,248,12.0,25.0,69,0.00,,,0.00,weatherlink.com 1.10,2013-02-11 11:54:00,
2013-02-11 06:09:00,34.4,26.0,29.77,WNW,302,13.0,28.0,70,0.00,,,0.00,weatherlink.com 1.10,2013-02-11 12:09:00,
2013-02-11 06:24:00,34.3,25.0,29.78,WNW,284,16.0,31.0,70,0.00,,,0.00,weatherlink.com 1.10,2013-02-11 12:24:00,
2013-02-11 06:39:00,34.2,26.0,29.78,WNW,283,16.0,25.0,71,0.00,,,0.00,weatherlink.com 1.10,2013-02-11 12:39:00,
2013-02-11 06:54:00,34.2,25.0,29.79,West,275,25.0,33.0,69,0.00,,,0.00,weatherlink.com 1.10,2013-02-11 12:54:00,
2013-02-11 07:09:00,34.3,25.0,29.80,West,262,17.0,39.0,68,0.00,,,0.00,weatherlink.com 1.10,2013-02-11 13:09:00,
2013-02-11 07:24:00,34.2,25.0,29.81,NW,312,24.0,30.0,70,0.00,,,0.00,weatherlink.com 1.10,2013-02-11 13:24:00,
2013-02-11 07:39:00,34.2,25.0,29.81,West,275,18.0,34.0,70,0.00,,,0.00,weatherlink.com 1.10,2013-02-11 13:39:00,
2013-02-11 07:54:00,34.1,25.0,29.82,WNW,284,21.0,33.0,69,0.00,,,0.00,weatherlink.com 1.10,2013-02-11 13:54:00,
2013-02-11 08:09:00,34.1,25.0,29.83,WNW,293,11.0,29.0,70,0.00,,,0.00,weatherlink.com 1.10,2013-02-11 14:09:00,
2013-02-11 08:24:00,34.0,25.0,29.84,NW,324,22.0,35.0,70,0.00,,,0.00,weatherlink.com 1.10,2013-02-11 14:24:00,
2013-02-11 08:39:00,34.0,24.0,29.85,West,281,24.0,34.0,68,0.00,,,0.00,weatherlink.com 1.10,2013-02-11 14:39:00,
2013-02-11 08:54:00,33.8,25.0,29.86,West,279,24.0,32.0,71,0.00,,,0.00,weatherlink.com 1.10,2013-02-11 14:54:00,
2013-02-11 09:09:00,33.8,24.0,29.86,SW,228,14.0,36.0,67,0.00,,,0.00,weatherlink.com 1.10,2013-02-11 15:09:00,
2013-02-11 09:24:00,33.8,24.0,29.88,NW,313,17.0,34.0,67,0.00,,,0.00,weatherlink.com 1.10,2013-02-11 15:24:00,
2013-02-11 09:39:00,33.7,24.0,29.88,West,259,21.0,32.0,67,0.00,,,0.00,weatherlink.com 1.10,2013-02-11 15:39:00,
2013-02-11 09:54:00,34.1,24.0,29.89,NW,308,18.0,32.0,67,0.00,,,0.00,weatherlink.com 1.10,2013-02-11 15:54:00,
2013-02-11 10:09:00,33.7,25.0,29.90,NW,316,20.0,38.0,69,0.00,,,0.00,weatherlink.com 1.10,2013-02-11 16:09:00,
2013-02-11 10:24:00,33.7,24.0,29.91,West,273,21.0,35.0,68,0.00,,,0.00,weatherlink.com 1.10,2013-02-11 16:24:00,
2013-02-11 10:40:00,33.9,25.0,29.92,WNW,294,17.0,29.0,69,0.00,,,0.00,weatherlink.com 1.10,2013-02-11 16:40:00,
2013-02-11 10:55:00,33.9,25.0,29.92,WSW,253,17.0,29.0,70,0.00,,,0.00,weatherlink.com 1.10,2013-02-11 16:55:00,
2013-02-11 11:10:00,33.8,25.0,29.93,NW,311,19.0,36.0,69,0.00,,,0.00,weatherlink.com 1.10,2013-02-11 17:10:00,
2013-02-11 11:25:00,33.9,25.0,29.94,NW,312,12.0,34.0,69,0.00,,,0.00,weatherlink.com 1.10,2013-02-11 17:25:00,
2013-02-11 11:40:00,34.1,25.0,29.94,WSW,254,20.0,26.0,70,0.00,,,0.00,weatherlink.com 1.10,2013-02-11 17:40:00,
2013-02-11 11:55:00,34.6,25.0,29.94,WSW,253,14.0,26.0,69,0.00,,,0.00,weatherlink.com 1.10,2013-02-11 17:55:00,
2013-02-11 12:10:00,34.8,25.0,29.94,NNW,332,22.0,30.0,68,0.00,,,0.00,weatherlink.com 1.10,2013-02-11 18:10:00,
2013-02-11 12:25:00,35.0,26.0,29.94,WNW,283,18.0,29.0,70,0.00,,,0.00,weatherlink.com 1.10,2013-02-11 18:25:00,
2013-02-11 12:40:00,34.8,26.0,29.95,WNW,297,29.0,31.0,69,0.00,,,0.00,weatherlink.com 1.10,2013-02-11 18:40:00,
2013-02-11 12:55:00,34.8,25.0,29.95,West,274,25.0,33.0,68,0.00,,,0.00,weatherlink.com 1.10,2013-02-11 18:55:00,
2013-02-11 13:10:00,35.4,26.0,29.95,WNW,288,17.0,32.0,68,0.00,,,0.00,weatherlink.com 1.10,2013-02-11 19:10:00,
2013-02-11 13:25:00,36.3,26.0,29.95,WNW,288,10.0,33.0,66,0.00,,,0.00,weatherlink.com 1.10,2013-02-11 19:25:00,
2013-02-11 13:40:00,36.1,27.0,29.95,WNW,302,20.0,31.0,70,0.00,,,0.00,weatherlink.com 1.10,2013-02-11 19:40:00,
2013-02-11 13:55:00,36.7,27.0,29.96,West,279,11.0,28.0,68,0.00,,,0.00,weatherlink.com 1.10,2013-02-11 19:55:00,
2013-02-11 14:10:00,37.1,28.0,29.96,WNW,303,20.0,27.0,69,0.00,,,0.00,weatherlink.com 1.10,2013-02-11 20:10:00,
2013-02-11 14:25:00,38.3,29.0,29.96,NW,312,15.0,26.0,68,0.00,,,0.00,weatherlink.com 1.10,2013-02-11 20:25:00,
2013-02-11 14:40:00,38.1,27.0,29.97,WNW,284,25.0,33.0,64,0.00,,,0.00,weatherlink.com 1.10,2013-02-11 20:40:00,
2013-02-11 14:55:00,37.9,28.0,29.98,NNW,338,10.0,25.0,68,0.00,,,0.00,weatherlink.com 1.10,2013-02-11 20:55:00,
2013-02-11 15:10:00,37.0,28.0,29.99,WNW,298,23.0,25.0,69,0.00,,,0.00,weatherlink.com 1.10,2013-02-11 21:10:00,
2013-02-11 15:25:00,38.2,28.0,29.99,NW,310,17.0,25.0,66,0.00,,,0.00,weatherlink.com 1.10,2013-02-11 21:25:00,
2013-02-11 15:40:00,37.3,27.0,29.99,WNW,302,11.0,27.0,66,0.00,,,0.00,weatherlink.com 1.10,2013-02-11 21:40:00,
2013-02-11 15:55:00,37.3,27.0,30.00,WNW,301,21.0,25.0,66,0.00,,,0.00,weatherlink.com 1.10,2013-02-11 21:55:00,
2013-02-11 16:10:00,37.7,28.0,30.01,NNW,336,8.0,24.0,68,0.00,,,0.00,weatherlink.com 1.10,2013-02-11 22:10:00,
2013-02-11 16:25:00,37.1,28.0,30.02,NNW,329,11.0,24.0,69,0.00,,,0.00,weatherlink.com 1.10,2013-02-11 22:25:00,
2013-02-11 16:40:00,36.6,27.0,30.02,WNW,295,8.0,24.0,68,0.00,,,0.00,weatherlink.com 1.10,2013-02-11 22:40:00,
2013-02-11 16:55:00,35.9,27.0,30.03,WNW,301,6.0,16.0,71,0.00,,,0.00,weatherlink.com 1.10,2013-02-11 22:55:00,
2013-02-11 17:10:00,34.8,27.0,30.03,NW,320,6.0,20.0,73,0.00,,,0.00,weatherlink.com 1.10,2013-02-11 23:10:00,
2013-02-11 17:25:00,33.9,27.0,30.04,NW,305,7.0,17.0,75,0.00,,,0.00,weatherlink.com 1.10,2013-02-11 23:25:00,
2013-02-11 17:40:00,33.3,27.0,30.05,WNW,299,8.0,15.0,76,0.00,,,0.00,weatherlink.com 1.10,2013-02-11 23:40:00,
2013-02-11 17:55:00,32.7,27.0,30.05,West,279,9.0,16.0,78,0.00,,,0.00,weatherlink.com 1.10,2013-02-11 23:55:00,
2013-02-11 18:10:00,32.5,26.0,30.06,NW,313,12.0,14.0,77,0.00,,,0.00,weatherlink.com 1.10,2013-02-12 00:10:00,
2013-02-11 18:25:00,32.1,26.0,30.07,NW,323,8.0,14.0,79,0.00,,,0.00,weatherlink.com 1.10,2013-02-12 00:25:00,
2013-02-11 18:40:00,31.9,26.0,30.07,NW,320,7.0,15.0,78,0.00,,,0.00,weatherlink.com 1.10,2013-02-12 00:40:00,
2013-02-11 18:55:00,31.6,26.0,30.07,NW,309,5.0,16.0,79,0.00,,,0.00,weatherlink.com 1.10,2013-02-12 00:55:00,
2013-02-11 19:10:00,31.4,26.0,30.07,NW,311,4.0,14.0,79,0.00,,,0.00,weatherlink.com 1.10,2013-02-12 01:10:00,
2013-02-11 19:25:00,31.2,25.0,30.08,WNW,284,11.0,15.0,79,0.00,,,0.00,weatherlink.com 1.10,2013-02-12 01:25:00,
2013-02-11 19:40:00,31.3,25.0,30.08,West,273,6.0,16.0,78,0.00,,,0.00,weatherlink.com 1.10,2013-02-12 01:40:00,
2013-02-11 19:55:00,31.4,25.0,30.09,WNW,293,12.0,18.0,78,0.00,,,0.00,weatherlink.com 1.10,2013-02-12 01:55:00,
2013-02-11 20:10:00,31.5,25.0,30.09,WNW,295,7.0,19.0,78,0.00,,,0.00,weatherlink.com 1.10,2013-02-12 02:10:00,
2013-02-11 20:26:00,31.5,25.0,30.09,NW,312,10.0,22.0,77,0.00,,,0.00,weatherlink.com 1.10,2013-02-12 02:26:00,
2013-02-11 20:41:00,31.7,26.0,30.10,WNW,303,8.0,17.0,78,0.00,,,0.00,weatherlink.com 1.10,2013-02-12 02:41:00,
2013-02-11 20:56:00,31.3,26.0,30.09,WNW,288,11.0,14.0,79,0.00,,,0.00,weatherlink.com 1.10,2013-02-12 02:56:00,
2013-02-11 21:11:00,31.0,25.0,30.09,NW,310,5.0,14.0,78,0.00,,,0.00,weatherlink.com 1.10,2013-02-12 03:11:00,
2013-02-11 21:26:00,30.6,25.0,30.10,WNW,285,7.0,14.0,80,0.00,,,0.00,weatherlink.com 1.10,2013-02-12 03:26:00,
2013-02-11 21:41:00,30.8,25.0,30.10,West,274,5.0,14.0,79,0.00,,,0.00,weatherlink.com 1.10,2013-02-12 03:41:00,
2013-02-11 21:56:00,30.9,25.0,30.11,West,275,7.0,17.0,79,0.00,,,0.00,weatherlink.com 1.10,2013-02-12 03:56:00,
2013-02-11 22:11:00,30.8,25.0,30.11,WNW,283,8.0,21.0,78,0.00,,,0.00,weatherlink.com 1.10,2013-02-12 04:11:00,
2013-02-11 22:26:00,30.6,25.0,30.11,WNW,288,8.0,17.0,78,0.00,,,0.00,weatherlink.com 1.10,2013-02-12 04:26:00,
2013-02-11 22:41:00,30.2,24.0,30.11,West,272,7.0,13.0,79,0.00,,,0.00,weatherlink.com 1.10,2013-02-12 04:41:00,
2013-02-11 22:56:00,30.3,25.0,30.12,West,273,8.0,20.0,79,0.00,,,0.00,weatherlink.com 1.10,2013-02-12 04:56:00,
2013-02-11 23:11:00,30.2,25.0,30.12,WNW,289,14.0,17.0,80,0.00,,,0.00,weatherlink.com 1.10,2013-02-12 05:11:00,
2013-02-11 23:26:00,30.0,25.0,30.13,WNW,296,8.0,17.0,80,0.00,,,0.00,weatherlink.com 1.10,2013-02-12 05:26:00,
2013-02-11 23:41:00,29.7,24.0,30.13,NW,312,5.0,13.0,80,0.00,,,0.00,weatherlink.com 1.10,2013-02-12 05:41:00,
2013-02-11 23:56:00,29.4,24.0,30.13,NW,311,7.0,11.0,81,0.00,,,0.00,weatherlink.com 1.10,2013-02-12 05:56:00,